Portada
METAR-TAF:

METAR-TAF

Aeroports :

Simla, Índia

latitud: 31-04-54N, longitud: 77-04-05E, altitud: 1546 m

Observació

L'informe es va fer fa 13 hores i 52 minuts, a les 06:00 UTC
Vent 4 kt del Oest
Temperatura 23°C
Humitat 47%
Pressió 1017 hPa
Visibilitat: 5000 m
Escasses núvols a una alçada de 3000 ft

METAR: VISM 200600Z 27004KT 5000 FEW030 23/11 Q1017

Hora: 01:22 (19:52 UTC)

Pronòstic

L'informe es va fer fa 14 hores i 52 minuts, a les 05:00 UTC
Pronòstic vàlid del 20 a les 06 UTC al 20 a les 15 UTC
Vent 4 kt del Oest/Sud-Oest
Visibilitat: 5000 m
calitja

TAF: VISM 200500Z 2006/2015 25004KT 5000 HZ NSC

Observacions i pronòstics meteorològics de més de 4000 aeroports (METAR i TAF).

Les estacions disponibles són els punts grocs i vermells al mapa.

Posi el ratolí al punt desitjat per veure el nom de l'estació.

Feu clic per veure les observacions i els pronòstics meteorològics.

Per canviar el mapa: feu clic els botons verds amb una creu de color negre per apropar; al botó verd amb un guió per allunyar la imatge; o en les fletxes verdes per a mapes adjacents.


METAR-TAF: